CheckWX is a tool to help pilots better visualize weather data.  It is not intended as a substitute for an official pre-flight weather briefing.

17:32:03 UTC

C29 METAR
Middleton Municipal - Morey Field Airport
Middleton, Wisconsin, USA
Current

17 mins ago

KC29 211715Z AUTO 04009KT 10SM CLR 26/14 A3003 RMK AO1 T02610140
Observed
Jul-21 @ 17:15 UTC
Wind
  • 040° at 9 KTS
Visibility
10 SM
Flight Rules
VFR
Cloud Levels
  • Clear skies
Temperature
26°C / 79°F
Dewpoint
14°C / 57°F
Humidity
48%
Altimeter
30.03" Hg
Pressure
1016.92 hPa
Previous

37 mins ago

KC29 211655Z AUTO 04008KT 10SM CLR 26/15 A3003 RMK AO1 T02580150
Observed
Jul-21 @ 16:55 UTC
Wind
  • 040° at 8 KTS
Visibility
10 SM
Flight Rules
VFR
Cloud Levels
  • Clear skies
Temperature
26°C / 79°F
Dewpoint
15°C / 59°F
Humidity
51%
Altimeter
30.03" Hg
Pressure
1016.92 hPa
Previous

57 mins ago

KC29 211635Z AUTO 03007KT 10SM CLR 25/16 A3002 RMK AO1 T02520159
Observed
Jul-21 @ 16:35 UTC
Wind
  • 030° at 7 KTS
Visibility
10 SM
Flight Rules
VFR
Cloud Levels
  • Clear skies
Temperature
25°C / 77°F
Dewpoint
16°C / 61°F
Humidity
57%
Altimeter
30.02" Hg
Pressure
1016.62 hPa